Time;durP1;ratioP1;P1;durP2;ratioP2;P2;SDS_P1;SDS_P2;PMS_P1;PMS_P2;Temp;Humidity;BMP_temperature;BMP_pressure;BME280_temperature;BME280_humidity;BME280_pressure;Samples;Min_cycle;Max_cycle;Signal;HPM_P1;HPM_P2
2023/03/30 00:01:16;;;;;;;34.03;25.05;;;10.80;99.90;;;;;;5051330;28;20041;-69
2023/03/30 00:03:43;;;;;;;36.03;26.75;;;10.80;99.90;;;;;;5050886;28;20048;-68
2023/03/30 00:06:11;;;;;;;33.85;23.83;;;10.90;99.90;;;;;;5051051;28;20040;-68
2023/03/30 00:08:37;;;;;;;34.00;24.40;;;10.90;99.90;;;;;;5051046;28;20072;-68
2023/03/30 00:11:08;;;;;;;42.15;27.95;;;10.90;99.90;;;;;;5050915;28;20183;-68
2023/03/30 00:13:35;;;;;;;35.03;23.23;;;10.90;99.90;;;;;;5051219;28;20041;-68
2023/03/30 00:16:02;;;;;;;36.42;24.45;;;10.90;99.90;;;;;;5050945;28;20091;-68
2023/03/30 00:18:28;;;;;;;33.33;22.60;;;10.90;99.90;;;;;;5051054;28;20120;-68
2023/03/30 00:20:54;;;;;;;35.22;23.85;;;10.90;99.90;;;;;;5050962;28;20037;-68
2023/03/30 00:23:21;;;;;;;30.30;22.20;;;10.90;99.90;;;;;;5033052;28;20099;-68
2023/03/30 00:25:47;;;;;;;31.02;20.73;;;10.90;99.90;;;;;;5050604;28;20040;-68
2023/03/30 00:28:13;;;;;;;30.42;20.48;;;11.00;99.90;;;;;;5054403;28;20041;-68
2023/03/30 00:30:38;;;;;;;28.35;19.75;;;11.00;99.90;;;;;;5054615;28;20039;-68
2023/03/30 00:33:04;;;;;;;25.95;19.98;;;11.00;99.90;;;;;;5054503;28;20109;-68
2023/03/30 00:35:30;;;;;;;24.25;19.15;;;11.10;99.90;;;;;;5054244;28;20420;-68
2023/03/30 00:38:00;;;;;;;27.48;18.40;;;11.10;99.90;;;;;;5054336;28;20112;-68
2023/03/30 00:40:27;;;;;;;24.70;17.80;;;11.10;99.90;;;;;;5054165;28;20037;-68
2023/03/30 00:42:59;;;;;;;25.20;16.60;;;11.10;99.90;;;;;;5054327;28;20130;-68
2023/03/30 00:45:27;;;;;;;22.52;16.17;;;11.10;99.90;;;;;;5053933;28;20044;-68
2023/03/30 00:48:10;;;;;;;20.83;16.17;;;11.10;99.90;;;;;;5054011;28;20041;-68
2023/03/30 00:50:45;;;;;;;24.70;15.82;;;11.20;99.90;;;;;;5036530;28;20114;-68
2023/03/30 00:53:24;;;;;;;22.17;16.08;;;11.20;99.90;;;;;;5054016;28;20080;-68
2023/03/30 00:55:51;;;;;;;23.02;15.77;;;11.20;99.90;;;;;;5053866;28;20045;-68
2023/03/30 00:58:20;;;;;;;19.75;15.10;;;11.20;99.90;;;;;;5053913;28;20500;-68
2023/03/30 01:00:46;;;;;;;25.13;14.77;;;11.20;99.90;;;;;;5053922;28;20048;-68
2023/03/30 01:03:33;;;;;;;23.60;16.33;;;11.30;99.90;;;;;;5036016;28;20037;-68
2023/03/30 01:06:01;;;;;;;21.88;15.05;;;11.30;99.90;;;;;;5035641;28;20079;-69
2023/03/30 01:08:31;;;;;;;22.05;15.55;;;11.20;99.90;;;;;;5053773;28;20041;-69
2023/03/30 01:11:00;;;;;;;23.13;15.73;;;11.20;99.90;;;;;;5035795;28;20055;-69
2023/03/30 01:13:27;;;;;;;22.70;14.50;;;11.20;99.90;;;;;;5053582;28;20045;-69
2023/03/30 01:16:25;;;;;;;19.88;14.70;;;11.20;99.90;;;;;;5053279;28;20049;-69
2023/03/30 01:19:15;;;;;;;19.88;14.50;;;11.20;99.90;;;;;;5053646;28;20056;-69
2023/03/30 01:21:57;;;;;;;23.15;14.73;;;11.20;99.90;;;;;;5053577;28;20040;-68
2023/03/30 01:24:52;;;;;;;19.13;14.10;;;11.20;99.90;;;;;;5053367;28;20037;-68
2023/03/30 01:27:47;;;;;;;20.58;13.88;;;11.20;99.90;;;;;;5053342;28;20138;-68
2023/03/30 01:30:25;;;;;;;20.35;14.93;;;11.20;99.90;;;;;;5053299;28;20086;-68
2023/03/30 01:33:21;;;;;;;19.65;12.50;;;11.20;99.90;;;;;;5053589;28;20051;-69
2023/03/30 01:36:19;;;;;;;17.77;13.57;;;11.20;99.90;;;;;;5053070;28;20523;-69
2023/03/30 01:39:12;;;;;;;18.75;12.32;;;11.20;99.90;;;;;;5051883;28;20037;-69
2023/03/30 01:42:11;;;;;;;20.63;12.30;;;11.20;99.90;;;;;;5053339;28;20029;-68
2023/03/30 01:44:45;;;;;;;19.27;11.73;;;11.20;99.90;;;;;;5052756;28;20049;-69
2023/03/30 01:47:33;;;;;;;17.42;11.23;;;11.10;99.90;;;;;;5035315;28;20507;-69
2023/03/30 01:50:12;;;;;;;18.55;11.50;;;11.10;99.90;;;;;;5053103;28;20087;-69
2023/03/30 01:52:53;;;;;;;15.57;10.45;;;11.10;99.90;;;;;;5034974;28;20032;-69
2023/03/30 01:55:33;;;;;;;16.98;9.57;;;11.10;99.90;;;;;;5052532;28;20497;-69
2023/03/30 01:58:06;;;;;;;12.98;9.65;;;11.20;99.90;;;;;;5034945;28;20107;-69
2023/03/30 02:00:35;;;;;;;15.52;8.85;;;11.20;99.90;;;;;;5052880;28;20033;-69
2023/03/30 02:03:12;;;;;;;12.93;8.63;;;11.20;99.90;;;;;;5034733;28;20052;-69
2023/03/30 02:05:40;;;;;;;10.77;7.43;;;11.20;99.90;;;;;;5052389;28;20037;-69
2023/03/30 02:08:15;;;;;;;14.27;8.25;;;11.20;99.90;;;;;;5052734;28;20045;-69
2023/03/30 02:10:42;;;;;;;11.60;7.88;;;11.20;99.90;;;;;;5034760;28;20119;-69
2023/03/30 02:13:09;;;;;;;10.75;6.78;;;11.20;99.90;;;;;;5052593;28;20041;-69
2023/03/30 02:15:49;;;;;;;9.82;6.97;;;11.20;99.90;;;;;;5052274;28;20040;-69
2023/03/30 02:18:15;;;;;;;12.30;6.70;;;11.30;99.90;;;;;;5052341;28;20067;-69
2023/03/30 02:20:41;;;;;;;11.00;6.95;;;11.20;99.90;;;;;;5052586;28;20515;-69
2023/03/30 02:23:07;;;;;;;9.32;6.88;;;11.30;99.90;;;;;;5052158;28;20048;-69
2023/03/30 02:25:37;;;;;;;10.57;6.65;;;11.30;99.90;;;;;;5051980;28;20103;-68
2023/03/30 02:28:03;;;;;;;11.65;6.60;;;11.40;99.90;;;;;;5034243;28;20385;-68
2023/03/30 02:30:34;;;;;;;11.10;6.90;;;11.40;99.90;;;;;;5052200;28;20047;-68
2023/03/30 02:33:00;;;;;;;11.85;6.85;;;11.40;99.90;;;;;;5052079;28;20041;-68
2023/03/30 02:35:42;;;;;;;12.02;7.50;;;11.40;99.90;;;;;;5052076;28;20091;-68
2023/03/30 02:38:13;;;;;;;8.93;6.65;;;11.40;99.90;;;;;;5051958;28;20489;-68
2023/03/30 02:41:01;;;;;;;11.63;7.45;;;11.40;99.90;;;;;;5052118;28;20037;-68
2023/03/30 02:43:39;;;;;;;11.95;7.28;;;11.40;99.90;;;;;;5017733;28;20053;-68
2023/03/30 02:46:35;;;;;;;9.57;6.53;;;11.40;99.90;;;;;;5051987;28;20037;-68
2023/03/30 02:49:16;;;;;;;10.52;6.07;;;11.40;99.90;;;;;;5051571;28;20041;-68
2023/03/30 02:51:50;;;;;;;10.35;6.63;;;11.40;99.90;;;;;;5051766;28;20098;-68
2023/03/30 02:54:18;;;;;;;14.77;7.25;;;11.40;99.90;;;;;;5051817;28;20037;-68
2023/03/30 02:56:54;;;;;;;9.30;6.25;;;11.40;99.90;;;;;;5033783;28;20527;-69
2023/03/30 02:59:26;;;;;;;12.60;7.13;;;11.50;99.90;;;;;;5051815;28;20076;-68
2023/03/30 03:02:03;;;;;;;9.18;6.22;;;11.50;99.90;;;;;;5033901;28;20119;-68
2023/03/30 03:04:32;;;;;;;9.18;6.03;;;11.50;99.90;;;;;;5051558;28;20761;-68
2023/03/30 03:07:01;;;;;;;8.65;6.28;;;11.50;99.90;;;;;;5051777;28;20037;-68
2023/03/30 03:09:27;;;;;;;10.82;6.85;;;11.50;99.90;;;;;;5051649;28;20037;-68
2023/03/30 03:11:54;;;;;;;7.90;5.70;;;11.40;99.90;;;;;;5051691;28;20115;-68
2023/03/30 03:14:20;;;;;;;11.88;6.65;;;11.40;99.90;;;;;;5051419;28;20044;-68
2023/03/30 03:16:45;;;;;;;15.73;6.63;;;11.40;99.90;;;;;;5051459;28;20033;-69
2023/03/30 03:19:11;;;;;;;12.23;6.07;;;11.40;99.90;;;;;;5051721;28;20488;-68
2023/03/30 03:21:37;;;;;;;10.60;6.13;;;11.40;99.90;;;;;;5052076;28;20064;-69
2023/03/30 03:24:05;;;;;;;10.07;6.50;;;11.40;99.90;;;;;;5033413;28;20041;-69
2023/03/30 03:26:31;;;;;;;10.35;6.22;;;11.40;99.90;;;;;;5051382;28;20134;-69
2023/03/30 03:28:56;;;;;;;7.47;6.38;;;11.40;99.90;;;;;;5033385;28;20037;-69
2023/03/30 03:31:23;;;;;;;12.32;6.32;;;11.40;99.90;;;;;;5051411;28;20047;-69
2023/03/30 03:33:49;;;;;;;12.05;6.65;;;11.30;99.90;;;;;;5033396;28;20049;-69
2023/03/30 03:36:15;;;;;;;9.20;6.63;;;11.30;99.90;;;;;;5016987;28;20120;-69
2023/03/30 03:38:41;;;;;;;12.93;6.95;;;11.30;99.90;;;;;;5051406;28;20116;-69
2023/03/30 03:41:07;;;;;;;7.82;6.05;;;11.30;99.90;;;;;;5051428;28;20064;-69
2023/03/30 03:43:32;;;;;;;14.43;6.63;;;11.20;99.90;;;;;;5033291;28;20045;-69
2023/03/30 03:45:58;;;;;;;10.25;6.45;;;11.20;99.90;;;;;;5050981;28;20039;-70
2023/03/30 03:48:23;;;;;;;11.52;6.05;;;11.20;99.90;;;;;;5051159;28;20029;-68
2023/03/30 03:50:51;;;;;;;13.45;7.05;;;11.10;99.90;;;;;;5033723;28;20401;-68
2023/03/30 03:53:17;;;;;;;10.02;5.90;;;11.10;99.90;;;;;;5051143;28;20676;-68
2023/03/30 03:55:44;;;;;;;9.25;6.03;;;11.10;99.90;;;;;;5050999;28;20037;-69
2023/03/30 03:58:10;;;;;;;9.05;6.05;;;11.20;99.90;;;;;;5051005;28;20095;-69
2023/03/30 04:00:36;;;;;;;11.55;6.88;;;11.20;99.90;;;;;;5051185;28;20037;-69
2023/03/30 04:03:03;;;;;;;8.70;6.05;;;11.10;99.90;;;;;;5054922;28;20108;-69
2023/03/30 04:05:29;;;;;;;11.82;6.32;;;11.20;99.90;;;;;;5054796;28;20060;-69
2023/03/30 04:07:55;;;;;;;11.57;6.13;;;11.30;99.90;;;;;;5054920;28;20500;-69
2023/03/30 04:10:21;;;;;;;13.25;5.50;;;11.20;99.90;;;;;;5020442;28;20037;-69
2023/03/30 04:12:47;;;;;;;9.38;5.25;;;11.30;99.90;;;;;;5036825;28;20082;-69
2023/03/30 04:15:12;;;;;;;10.93;5.10;;;11.30;99.90;;;;;;5054723;28;20405;-69
2023/03/30 04:17:38;;;;;;;10.23;5.10;;;11.30;99.90;;;;;;5054615;28;20045;-69
2023/03/30 04:20:09;;;;;;;11.52;5.57;;;11.30;99.90;;;;;;5054718;28;20056;-69
2023/03/30 04:22:36;;;;;;;10.35;5.25;;;11.30;99.90;;;;;;5037062;28;20063;-69
2023/03/30 04:25:05;;;;;;;8.45;5.32;;;11.30;99.90;;;;;;5054184;28;20118;-69
2023/03/30 04:27:31;;;;;;;7.35;4.55;;;11.30;99.90;;;;;;5077884;22;20041;-67
2023/03/30 04:29:57;;;;;;;7.82;4.60;;;11.30;99.90;;;;;;5054710;28;20033;-67
2023/03/30 04:32:23;;;;;;;12.05;5.20;;;11.30;99.90;;;;;;5055718;28;20515;-67
2023/03/30 04:34:53;;;;;;;8.55;4.95;;;11.30;99.90;;;;;;5054180;28;20052;-67
2023/03/30 04:37:22;;;;;;;10.60;5.00;;;11.30;99.90;;;;;;5053954;28;20412;-67
2023/03/30 04:39:49;;;;;;;15.65;4.78;;;11.20;99.90;;;;;;5054268;28;20076;-67
2023/03/30 04:42:18;;;;;;;13.05;5.00;;;11.30;99.90;;;;;;5054462;28;20116;-67
2023/03/30 04:44:45;;;;;;;12.02;4.72;;;11.30;99.90;;;;;;5054037;28;20045;-67
2023/03/30 04:47:10;;;;;;;11.57;4.32;;;11.30;99.90;;;;;;5054148;28;20033;-67
2023/03/30 04:49:36;;;;;;;7.13;4.13;;;11.20;99.90;;;;;;5054095;28;20397;-67
2023/03/30 04:52:01;;;;;;;11.32;4.55;;;11.20;99.90;;;;;;5054066;28;20506;-67
2023/03/30 04:54:27;;;;;;;8.90;4.10;;;11.20;99.90;;;;;;5053514;28;20041;-67
2023/03/30 04:56:52;;;;;;;9.50;3.97;;;11.20;99.90;;;;;;5054147;28;20037;-67
2023/03/30 04:59:18;;;;;;;8.13;3.35;;;11.20;99.90;;;;;;5054017;28;20033;-67
2023/03/30 05:01:44;;;;;;;9.10;4.03;;;11.20;99.90;;;;;;5054094;28;20045;-67
2023/03/30 05:04:10;;;;;;;6.22;3.63;;;11.20;99.90;;;;;;5053621;28;20045;-67
2023/03/30 05:06:35;;;;;;;8.82;4.20;;;11.30;99.90;;;;;;5053733;28;20064;-67
2023/03/30 05:09:01;;;;;;;6.70;4.20;;;11.30;99.90;;;;;;5053647;28;20411;-67
2023/03/30 05:11:27;;;;;;;7.78;4.20;;;11.30;99.90;;;;;;5054012;28;20404;-67
2023/03/30 05:13:53;;;;;;;5.55;3.40;;;11.30;99.90;;;;;;5052266;28;20045;-67
2023/03/30 05:16:19;;;;;;;9.55;3.95;;;11.40;99.90;;;;;;5053690;28;20033;-69
2023/03/30 05:18:44;;;;;;;8.02;3.47;;;11.40;99.90;;;;;;5053660;28;20052;-70
2023/03/30 05:21:10;;;;;;;13.10;5.50;;;11.40;99.90;;;;;;5053533;28;20041;-68
2023/03/30 05:23:38;;;;;;;6.57;3.85;;;11.40;99.90;;;;;;5032989;28;20040;-68
2023/03/30 05:26:05;;;;;;;11.50;3.30;;;11.40;99.90;;;;;;5034576;28;20385;-68
2023/03/30 05:28:32;;;;;;;11.45;3.72;;;11.40;99.90;;;;;;5053154;28;20484;-67
2023/03/30 05:30:57;;;;;;;10.57;4.25;;;11.50;99.90;;;;;;5053377;28;20037;-67
2023/03/30 05:33:23;;;;;;;11.05;3.90;;;11.50;99.90;;;;;;5046977;28;20041;-67
2023/03/30 05:35:49;;;;;;;8.02;4.70;;;11.50;99.90;;;;;;5050578;28;20094;-67
2023/03/30 05:38:15;;;;;;;14.38;4.25;;;11.50;99.90;;;;;;5034278;28;20041;-67
2023/03/30 05:40:41;;;;;;;7.38;4.05;;;11.60;99.90;;;;;;5029175;28;20098;-67
2023/03/30 05:43:06;;;;;;;6.35;3.50;;;11.60;99.90;;;;;;5050489;28;20037;-68
2023/03/30 05:45:32;;;;;;;9.43;4.15;;;11.60;99.90;;;;;;5052896;28;20037;-67
2023/03/30 05:47:57;;;;;;;13.13;3.97;;;11.60;99.90;;;;;;5052696;28;20512;-68
2023/03/30 05:50:23;;;;;;;12.63;4.03;;;11.60;99.90;;;;;;5052827;28;20040;-68
2023/03/30 05:52:49;;;;;;;11.18;5.07;;;11.60;99.90;;;;;;5052770;28;20424;-68
2023/03/30 05:55:15;;;;;;;8.35;4.38;;;11.60;99.90;;;;;;5046450;28;20040;-68
2023/03/30 05:57:40;;;;;;;11.45;4.60;;;11.60;99.90;;;;;;5041690;28;20037;-67
2023/03/30 06:00:09;;;;;;;10.57;4.57;;;11.70;99.90;;;;;;5042463;28;20047;-68
2023/03/30 06:02:34;;;;;;;8.85;4.60;;;11.60;99.90;;;;;;5049015;28;20090;-68
2023/03/30 06:05:00;;;;;;;13.52;4.88;;;11.60;99.90;;;;;;5052183;28;20044;-68
2023/03/30 06:07:26;;;;;;;12.43;5.25;;;11.60;99.90;;;;;;5052335;28;20492;-68
2023/03/30 06:09:52;;;;;;;15.30;5.28;;;11.70;99.90;;;;;;5052457;28;20045;-66
2023/03/30 06:12:18;;;;;;;9.98;4.55;;;11.70;99.90;;;;;;5052322;28;20540;-66
2023/03/30 06:14:44;;;;;;;9.02;4.75;;;11.70;99.90;;;;;;5052145;28;20161;-66
2023/03/30 06:17:11;;;;;;;13.95;4.55;;;11.60;99.90;;;;;;5052239;28;20500;-66
2023/03/30 06:19:38;;;;;;;9.35;3.95;;;11.70;99.90;;;;;;5052272;28;20060;-66
2023/03/30 06:22:04;;;;;;;12.02;4.47;;;11.70;99.90;;;;;;5034553;28;20412;-67
2023/03/30 06:24:30;;;;;;;10.00;4.13;;;11.70;99.90;;;;;;5051353;28;20187;-67
2023/03/30 06:26:55;;;;;;;8.77;4.60;;;11.70;99.90;;;;;;5052267;28;20508;-67
2023/03/30 06:29:21;;;;;;;13.25;5.40;;;11.70;99.90;;;;;;5051808;28;20037;-67
2023/03/30 06:31:47;;;;;;;10.77;4.78;;;11.80;99.90;;;;;;5052028;28;20048;-68
2023/03/30 06:34:13;;;;;;;10.68;5.35;;;11.80;99.90;;;;;;5051798;28;20132;-66
2023/03/30 06:36:39;;;;;;;7.55;4.50;;;11.80;99.90;;;;;;5051660;28;20047;-66
2023/03/30 06:39:04;;;;;;;11.75;5.38;;;11.80;99.90;;;;;;5051859;28;20087;-67
2023/03/30 06:41:30;;;;;;;14.32;4.90;;;11.90;99.90;;;;;;5051842;28;20080;-67
2023/03/30 06:43:56;;;;;;;10.35;4.68;;;11.90;99.90;;;;;;5051807;28;20033;-67
2023/03/30 06:46:21;;;;;;;10.02;5.00;;;11.80;99.90;;;;;;5051721;28;20087;-66
2023/03/30 06:48:47;;;;;;;11.73;5.45;;;11.90;99.90;;;;;;5033837;28;20090;-67
2023/03/30 06:51:13;;;;;;;14.10;5.40;;;11.90;99.90;;;;;;5051588;28;20044;-66
2023/03/30 06:53:39;;;;;;;9.55;4.82;;;12.00;99.90;;;;;;5051724;28;20076;-67
2023/03/30 06:56:06;;;;;;;16.48;6.10;;;12.10;99.90;;;;;;5051480;28;20554;-67
2023/03/30 06:58:33;;;;;;;11.38;4.80;;;12.20;99.90;;;;;;5051572;28;20045;-67
2023/03/30 07:01:06;;;;;;;8.30;4.53;;;12.30;99.90;;;;;;5051652;28;20044;-67
2023/03/30 07:03:32;;;;;;;9.07;4.60;;;12.40;99.90;;;;;;5047877;28;20564;-67
2023/03/30 07:05:58;;;;;;;10.30;4.68;;;12.40;99.90;;;;;;5051236;28;20044;-68
2023/03/30 07:08:23;;;;;;;12.50;4.80;;;12.50;99.90;;;;;;5051472;28;20043;-67
2023/03/30 07:10:50;;;;;;;10.73;5.00;;;12.70;99.90;;;;;;5051554;28;20059;-69
2023/03/30 07:13:16;;;;;;;9.00;4.97;;;13.00;99.90;;;;;;5051379;28;20041;-66
2023/03/30 07:15:42;;;;;;;9.82;3.95;;;13.40;99.90;;;;;;5051135;28;20045;-68
2023/03/30 07:18:07;;;;;;;10.90;3.80;;;13.50;99.90;;;;;;5033408;28;20409;-67
2023/03/30 07:20:33;;;;;;;9.98;4.22;;;13.40;99.90;;;;;;5051492;28;20104;-68
2023/03/30 07:23:00;;;;;;;10.30;4.38;;;13.20;99.90;;;;;;5051391;28;20045;-68
2023/03/30 07:25:25;;;;;;;9.45;3.85;;;13.00;99.90;;;;;;5050993;28;20454;-67
2023/03/30 07:27:51;;;;;;;7.47;3.40;;;12.90;99.90;;;;;;5033083;28;20049;-67
2023/03/30 07:30:17;;;;;;;10.98;3.95;;;12.80;99.90;;;;;;5051277;28;20037;-67
2023/03/30 07:32:42;;;;;;;15.50;4.57;;;12.60;99.90;;;;;;5047969;28;20074;-67
2023/03/30 07:35:08;;;;;;;9.65;4.35;;;12.50;99.90;;;;;;5033568;28;20106;-67
2023/03/30 07:37:36;;;;;;;13.98;4.43;;;12.40;99.90;;;;;;5037877;28;20041;-69
2023/03/30 07:40:06;;;;;;;12.52;4.15;;;12.30;99.90;;;;;;5038109;28;20509;-67
2023/03/30 07:42:32;;;;;;;14.25;3.67;;;12.30;99.90;;;;;;5035412;28;20436;-68
2023/03/30 07:44:57;;;;;;;9.40;3.03;;;12.30;99.90;;;;;;5034821;28;20037;-68
2023/03/30 07:47:23;;;;;;;17.63;4.85;;;12.20;99.90;;;;;;5035026;28;20107;-68
2023/03/30 07:49:48;;;;;;;13.73;3.47;;;12.20;99.90;;;;;;5035342;28;20459;-68
2023/03/30 07:52:14;;;;;;;14.25;3.17;;;12.20;99.90;;;;;;5035282;28;20091;-68
2023/03/30 07:54:42;;;;;;;14.90;4.07;;;12.20;99.90;;;;;;5034738;28;20041;-68
2023/03/30 07:57:09;;;;;;;21.48;4.63;;;12.10;99.90;;;;;;5035088;28;20050;-68
2023/03/30 07:59:35;;;;;;;12.23;4.18;;;12.10;99.90;;;;;;5035006;28;20037;-68
2023/03/30 08:02:00;;;;;;;13.02;3.47;;;12.10;99.90;;;;;;5017089;28;20643;-67
2023/03/30 08:04:26;;;;;;;16.88;3.50;;;12.10;99.90;;;;;;5034831;28;20042;-70
2023/03/30 08:06:52;;;;;;;17.10;3.65;;;12.10;99.90;;;;;;5037358;28;20043;-70
2023/03/30 08:09:18;;;;;;;106.35;60.80;;;12.00;99.90;;;;;;5027387;28;20033;-69
2023/03/30 08:11:44;;;;;;;114.72;64.90;;;12.10;99.90;;;;;;5048978;28;20510;-69
2023/03/30 08:14:10;;;;;;;27.63;6.10;;;12.10;99.90;;;;;;5054594;28;20045;-68
2023/03/30 08:16:36;;;;;;;21.17;4.70;;;12.10;99.90;;;;;;5054527;28;20123;-67
2023/03/30 08:19:01;;;;;;;22.27;5.90;;;12.00;99.90;;;;;;5049445;28;20124;-68
2023/03/30 08:21:27;;;;;;;18.63;5.13;;;12.00;99.90;;;;;;5042630;28;20095;-68
2023/03/30 08:23:57;;;;;;;15.77;5.25;;;11.90;99.90;;;;;;5016843;28;20041;-68
2023/03/30 08:26:25;;;;;;;20.35;5.63;;;11.80;99.90;;;;;;5034414;28;20504;-68
2023/03/30 08:28:51;;;;;;;23.05;4.85;;;11.80;99.90;;;;;;5034166;28;20033;-68
2023/03/30 08:31:17;;;;;;;24.88;6.47;;;11.80;99.90;;;;;;5016629;28;20051;-69
2023/03/30 08:33:43;;;;;;;14.90;3.92;;;11.80;99.90;;;;;;5034346;28;20175;-73
2023/03/30 08:36:09;;;;;;;26.08;4.85;;;11.80;99.90;;;;;;5016857;28;20045;-74
2023/03/30 08:38:35;;;;;;;17.80;5.05;;;11.80;99.90;;;;;;5016747;28;20041;-75
2023/03/30 08:41:01;;;;;;;22.58;4.43;;;11.70;99.90;;;;;;5016736;28;20432;-73
2023/03/30 08:43:30;;;;;;;23.30;5.45;;;11.60;99.90;;;;;;5016889;28;20037;-75
2023/03/30 08:45:58;;;;;;;22.65;4.82;;;11.60;99.90;;;;;;5022881;28;20497;-70
2023/03/30 08:48:26;;;;;;;15.05;4.82;;;11.70;99.90;;;;;;5035102;28;20041;-70
2023/03/30 08:50:59;;;;;;;23.25;5.38;;;11.60;99.90;;;;;;5054192;28;20041;-70
2023/03/30 08:53:28;;;;;;;23.20;5.25;;;11.60;99.90;;;;;;5054084;28;20064;-70
2023/03/30 08:56:06;;;;;;;23.98;5.65;;;11.70;99.90;;;;;;5053724;28;20108;-72
2023/03/30 08:58:54;;;;;;;18.65;5.32;;;11.70;99.90;;;;;;5035922;28;20052;-71
2023/03/30 09:01:47;;;;;;;27.27;6.28;;;11.80;99.90;;;;;;5036327;28;20067;-71
2023/03/30 09:04:12;;;;;;;21.88;5.32;;;11.90;99.90;;;;;;5070900;28;20428;-71
2023/03/30 09:06:54;;;;;;;24.02;5.20;;;11.90;99.90;;;;;;5055738;28;20044;-70
2023/03/30 09:09:24;;;;;;;21.25;5.10;;;12.00;99.90;;;;;;5055749;28;20033;-71
2023/03/30 09:12:07;;;;;;;33.20;11.27;;;12.10;99.90;;;;;;5055487;28;20125;-73
2023/03/30 09:14:39;;;;;;;25.27;5.15;;;12.20;99.90;;;;;;5055684;28;20526;-72
2023/03/30 09:17:13;;;;;;;18.02;5.68;;;12.20;99.90;;;;;;5054670;28;20526;-74
2023/03/30 09:19:57;;;;;;;29.00;7.00;;;12.10;99.90;;;;;;5055631;28;20115;-77
2023/03/30 09:22:31;;;;;;;24.98;6.20;;;12.30;99.90;;;;;;5056131;28;20511;-73
2023/03/30 09:24:58;;;;;;;18.95;5.13;;;12.50;99.90;;;;;;5055137;28;20059;-72
2023/03/30 09:28:01;;;;;;;19.65;5.22;;;12.60;99.90;;;;;;5055068;28;20499;-73
2023/03/30 09:30:40;;;;;;;32.23;6.70;;;12.70;99.90;;;;;;5054989;28;20048;-72
2023/03/30 09:33:19;;;;;;;18.13;4.85;;;12.60;99.90;;;;;;5055415;28;20111;-72
2023/03/30 09:36:09;;;;;;;16.02;4.30;;;12.70;99.90;;;;;;5033585;28;20449;-73
2023/03/30 09:38:40;;;;;;;17.73;3.63;;;12.70;99.90;;;;;;5032572;28;20127;-72
2023/03/30 09:41:30;;;;;;;20.60;4.13;;;12.80;99.90;;;;;;5035331;28;20045;-73
2023/03/30 09:43:58;;;;;;;25.98;4.07;;;12.90;99.90;;;;;;5024273;28;20261;-76
2023/03/30 09:46:24;;;;;;;16.35;3.40;;;13.10;99.90;;;;;;5024195;28;20048;-71
2023/03/30 09:48:50;;;;;;;12.80;3.65;;;13.40;99.90;;;;;;5035414;28;20037;-72
2023/03/30 09:51:27;;;;;;;23.20;4.05;;;13.30;99.90;;;;;;5017772;28;20060;-70
2023/03/30 09:54:05;;;;;;;16.67;3.72;;;13.50;99.90;;;;;;5028838;28;20094;-71
2023/03/30 09:56:42;;;;;;;17.45;3.33;;;13.50;99.90;;;;;;5034442;28;20059;-71
2023/03/30 09:59:26;;;;;;;20.83;4.55;;;13.50;99.90;;;;;;5051574;28;20045;-73
2023/03/30 10:01:51;;;;;;;15.05;3.08;;;13.40;99.90;;;;;;5034645;28;20041;-71
2023/03/30 10:04:17;;;;;;;23.40;3.75;;;13.40;99.90;;;;;;5052465;28;20060;-72
2023/03/30 10:06:48;;;;;;;20.33;4.10;;;13.30;99.90;;;;;;5052436;28;20033;-72
2023/03/30 10:09:18;;;;;;;16.27;3.20;;;13.20;99.90;;;;;;5052292;28;20555;-70
2023/03/30 10:11:47;;;;;;;15.18;3.47;;;13.10;99.90;;;;;;5034843;28;20479;-70
2023/03/30 10:14:32;;;;;;;14.07;2.80;;;13.10;99.90;;;;;;5052414;28;20044;-70
2023/03/30 10:16:59;;;;;;;14.05;3.10;;;13.10;99.90;;;;;;5052598;28;20079;-70
2023/03/30 10:19:34;;;;;;;16.52;3.10;;;13.10;99.90;;;;;;5109290;27;20767;-69
2023/03/30 10:22:03;;;;;;;16.77;4.03;;;13.10;99.90;;;;;;5108246;28;20051;-70
2023/03/30 10:24:32;;;;;;;12.48;3.65;;;13.10;99.90;;;;;;5109145;28;20411;-70
2023/03/30 10:27:12;;;;;;;12.85;2.65;;;13.10;99.90;;;;;;5109485;28;20042;-70
2023/03/30 10:29:37;;;;;;;17.77;4.03;;;13.00;99.90;;;;;;5095679;22;20048;-71
2023/03/30 10:32:14;;;;;;;12.25;2.72;;;13.00;99.90;;;;;;5068731;28;20033;-71
2023/03/30 10:34:45;;;;;;;11.40;2.60;;;12.90;99.90;;;;;;5068558;28;20128;-72
2023/03/30 10:37:15;;;;;;;13.98;2.75;;;12.80;99.90;;;;;;5068236;28;20071;-72
2023/03/30 10:39:43;;;;;;;13.80;3.05;;;12.80;99.90;;;;;;5067365;28;20033;-71
2023/03/30 10:42:15;;;;;;;16.17;3.28;;;12.80;99.90;;;;;;5068626;28;20419;-71
2023/03/30 10:44:58;;;;;;;12.70;3.00;;;12.80;99.90;;;;;;5068572;28;20419;-71
2023/03/30 10:47:41;;;;;;;17.08;3.53;;;12.70;99.90;;;;;;5068594;28;20045;-71
2023/03/30 10:50:07;;;;;;;17.02;3.55;;;12.70;99.90;;;;;;5068499;28;20079;-71
2023/03/30 10:53:14;;;;;;;16.35;3.60;;;12.70;99.90;;;;;;5068292;28;20072;-71
2023/03/30 10:55:55;;;;;;;18.85;4.68;;;12.70;99.90;;;;;;5009449;28;20489;-71
2023/03/30 10:58:51;;;;;;;18.88;3.85;;;12.60;99.90;;;;;;5064261;28;20068;-71
2023/03/30 11:01:36;;;;;;;17.63;3.72;;;12.60;99.90;;;;;;5066961;28;20045;-71
2023/03/30 11:04:09;;;;;;;23.17;3.78;;;12.50;99.90;;;;;;5068226;28;20041;-71
2023/03/30 11:06:45;;;;;;;22.07;3.97;;;12.60;99.90;;;;;;5067956;28;20400;-71
2023/03/30 11:09:20;;;;;;;24.75;4.30;;;12.60;99.90;;;;;;5067046;28;20045;-69
2023/03/30 11:11:56;;;;;;;39.83;16.92;;;12.60;99.90;;;;;;5060801;28;20039;-71
2023/03/30 11:14:54;;;;;;;28.52;11.50;;;12.70;99.90;;;;;;5057059;28;20547;-70
2023/03/30 11:17:33;;;;;;;16.15;3.65;;;12.70;99.90;;;;;;5052063;28;20186;-71
2023/03/30 11:20:19;;;;;;;17.90;4.22;;;12.70;99.90;;;;;;5062084;28;20404;-71
2023/03/30 11:22:53;;;;;;;20.30;4.80;;;12.80;99.90;;;;;;5061509;28;20042;-71
2023/03/30 11:25:23;;;;;;;17.65;4.68;;;12.70;99.90;;;;;;5066139;28;20041;-70
2023/03/30 11:27:57;;;;;;;20.25;5.38;;;12.70;99.90;;;;;;5053399;28;20516;-70
2023/03/30 11:30:29;;;;;;;23.40;4.38;;;12.70;99.90;;;;;;5036036;28;20064;-70
2023/03/30 11:33:07;;;;;;;18.38;3.15;;;12.80;99.90;;;;;;5033451;28;20037;-70
2023/03/30 11:35:42;;;;;;;25.45;4.43;;;12.80;99.90;;;;;;5034350;28;20045;-70
2023/03/30 11:38:22;;;;;;;18.45;4.07;;;12.90;99.90;;;;;;5034415;28;20045;-71
2023/03/30 11:40:54;;;;;;;25.23;6.10;;;12.90;99.90;;;;;;5016609;28;20049;-70
2023/03/30 11:43:27;;;;;;;22.85;5.00;;;13.00;99.90;;;;;;5034493;28;20041;-70
2023/03/30 11:46:05;;;;;;;18.38;3.70;;;13.10;99.90;;;;;;5032991;28;20041;-71
2023/03/30 11:48:51;;;;;;;17.85;4.45;;;13.20;99.90;;;;;;5032875;28;20052;-71
2023/03/30 11:51:37;;;;;;;26.63;4.13;;;13.40;99.90;;;;;;5033068;28;20045;-70
2023/03/30 11:54:21;;;;;;;19.05;3.95;;;13.60;99.90;;;;;;5033988;28;20053;-70
2023/03/30 11:57:14;;;;;;;19.05;3.85;;;13.80;99.90;;;;;;5034085;28;20037;-70
2023/03/30 11:59:46;;;;;;;15.07;3.75;;;13.80;99.90;;;;;;5034130;28;20045;-70
2023/03/30 12:02:33;;;;;;;14.98;4.40;;;14.00;99.90;;;;;;5034036;28;20037;-70
2023/03/30 12:05:14;;;;;;;18.95;3.88;;;13.90;99.90;;;;;;5032386;28;20041;-71
2023/03/30 12:07:52;;;;;;;14.30;3.97;;;14.00;99.90;;;;;;5033628;28;20040;-69
2023/03/30 12:10:41;;;;;;;77.18;35.65;;;13.90;99.90;;;;;;5033751;28;20497;-71
2023/03/30 12:13:16;;;;;;;19.80;4.93;;;13.90;99.90;;;;;;5032502;28;20045;-71
2023/03/30 12:15:54;;;;;;;16.05;4.28;;;13.80;99.90;;;;;;5033453;28;20120;-70
2023/03/30 12:18:35;;;;;;;21.73;3.92;;;13.70;99.90;;;;;;5032210;28;20501;-71
2023/03/30 12:21:26;;;;;;;26.15;5.22;;;13.70;99.90;;;;;;5033627;28;20045;-71
2023/03/30 12:24:20;;;;;;;17.95;3.80;;;13.70;99.90;;;;;;5032077;28;20045;-71
2023/03/30 12:26:47;;;;;;;14.25;3.40;;;13.70;99.90;;;;;;5032082;28;20076;-70
2023/03/30 12:29:17;;;;;;;21.95;4.90;;;13.80;99.90;;;;;;5033327;28;20460;-70
2023/03/30 12:32:01;;;;;;;16.33;5.05;;;13.80;99.90;;;;;;5032254;28;20044;-71
2023/03/30 12:34:33;;;;;;;19.52;3.50;;;13.90;99.90;;;;;;5032239;28;20174;-70
2023/03/30 12:37:11;;;;;;;25.35;3.83;;;13.80;99.90;;;;;;5033262;28;20037;-71
2023/03/30 12:39:48;;;;;;;16.52;3.72;;;13.70;99.90;;;;;;5031924;28;20052;-71
2023/03/30 12:42:25;;;;;;;21.27;4.38;;;13.70;99.90;;;;;;5032133;28;20048;-71
2023/03/30 12:45:22;;;;;;;15.50;3.42;;;13.60;99.90;;;;;;5032931;28;20044;-71
2023/03/30 12:48:09;;;;;;;23.52;4.22;;;13.60;99.90;;;;;;5031865;28;20103;-70
2023/03/30 12:50:56;;;;;;;18.23;3.97;;;13.60;99.90;;;;;;5032999;28;20047;-70
2023/03/30 12:53:47;;;;;;;18.55;4.82;;;13.60;99.90;;;;;;5032914;28;20124;-71
2023/03/30 12:56:35;;;;;;;15.98;3.88;;;13.60;99.90;;;;;;5031570;28;20045;-70
2023/03/30 12:59:38;;;;;;;22.15;3.67;;;13.60;99.90;;;;;;5032920;28;20041;-70